createdAt,value
2023-02-02T00:00:36.893Z,8.25
2023-02-02T00:03:10.921Z,8.26
2023-02-02T00:05:39.228Z,8.21
2023-02-02T00:08:07.030Z,8.36
2023-02-02T00:10:36.270Z,8.33
2023-02-02T00:13:04.709Z,8.16
2023-02-02T00:15:35.685Z,8.19
2023-02-02T00:18:03.709Z,8.30
2023-02-02T00:20:38.379Z,8.39
2023-02-02T00:23:06.484Z,8.41
2023-02-02T00:25:34.538Z,8.21
2023-02-02T00:28:06.152Z,8.28
2023-02-02T00:30:34.079Z,8.34
2023-02-02T00:33:05.993Z,8.23
2023-02-02T00:35:37.352Z,8.39
2023-02-02T00:38:05.718Z,8.25
2023-02-02T00:40:35.512Z,8.51
2023-02-02T00:43:03.952Z,8.37
2023-02-02T00:45:31.833Z,8.41
2023-02-02T00:48:00.772Z,8.48
2023-02-02T00:50:33.709Z,8.36
2023-02-02T00:53:05.257Z,8.51
2023-02-02T00:55:36.425Z,8.47
2023-02-02T00:58:06.521Z,8.55
2023-02-02T01:00:34.326Z,8.42
2023-02-02T01:03:04.488Z,8.50
2023-02-02T01:05:34.369Z,8.47
2023-02-02T01:08:07.305Z,8.54
2023-02-02T01:10:36.270Z,8.46
2023-02-02T01:13:05.326Z,8.55
2023-02-02T01:15:38.175Z,8.52
2023-02-02T01:18:06.676Z,8.65
2023-02-02T01:20:36.775Z,8.70
2023-02-02T01:23:06.570Z,8.54
2023-02-02T01:25:38.634Z,8.49
2023-02-02T01:28:06.942Z,8.65
2023-02-02T01:30:35.835Z,8.56
2023-02-02T01:33:06.362Z,8.53
2023-02-02T01:35:34.434Z,8.52
2023-02-02T01:38:02.968Z,8.60
2023-02-02T01:40:35.761Z,8.61
2023-02-02T01:43:04.461Z,8.32
2023-02-02T01:45:33.905Z,8.32
2023-02-02T01:48:02.086Z,8.47
2023-02-02T01:50:34.628Z,8.43
2023-02-02T01:53:05.071Z,8.40
2023-02-02T01:55:55.597Z,8.39
2023-02-02T01:58:27.244Z,8.31
2023-02-02T02:00:57.496Z,8.17
2023-02-02T02:03:28.837Z,8.20
2023-02-02T02:06:19.117Z,8.29
2023-02-02T02:08:53.396Z,8.26
2023-02-02T02:11:40.202Z,8.28
2023-02-02T02:14:44.561Z,8.45
2023-02-02T02:17:26.673Z,8.48
2023-02-02T02:20:47.903Z,8.26
2023-02-02T02:24:21.665Z,8.24
2023-02-02T02:27:05.280Z,8.30
2023-02-02T02:29:53.696Z,8.41
2023-02-02T02:32:36.892Z,8.34
2023-02-02T02:35:28.416Z,8.38
2023-02-02T02:38:02.883Z,8.36
2023-02-02T02:40:36.882Z,8.33
2023-02-02T02:43:11.760Z,8.30
2023-02-02T02:45:45.227Z,8.37
2023-02-02T02:48:22.687Z,8.46
2023-02-02T02:50:51.704Z,8.34
2023-02-02T02:53:22.513Z,8.32
2023-02-02T02:56:02.180Z,8.16
2023-02-02T02:58:39.231Z,8.11
2023-02-02T03:01:16.085Z,8.24
2023-02-02T03:03:57.943Z,8.03
2023-02-02T03:06:35.213Z,8.10
2023-02-02T03:09:10.991Z,8.09
2023-02-02T03:11:40.728Z,8.09
2023-02-02T03:14:10.155Z,8.06
2023-02-02T03:16:39.562Z,8.10
2023-02-02T03:19:13.143Z,8.11
2023-02-02T03:21:41.453Z,8.21
2023-02-02T03:24:10.304Z,8.20
2023-02-02T03:26:43.292Z,8.32
2023-02-02T03:29:11.562Z,8.35
2023-02-02T03:31:40.894Z,8.39
2023-02-02T03:34:10.582Z,8.11
2023-02-02T03:36:41.656Z,8.10
2023-02-02T03:39:10.100Z,8.10
2023-02-02T03:41:40.751Z,8.11
2023-02-02T03:44:12.041Z,8.23
2023-02-02T03:46:42.220Z,7.95
2023-02-02T03:49:11.905Z,8.03
2023-02-02T03:51:41.409Z,8.00
2023-02-02T03:54:11.077Z,8.03
2023-02-02T03:56:39.700Z,8.01
2023-02-02T03:59:07.903Z,8.07
2023-02-02T04:01:36.350Z,8.03
2023-02-02T04:04:05.762Z,7.98
2023-02-02T04:06:35.882Z,7.95
2023-02-02T04:09:03.731Z,8.09
2023-02-02T04:11:34.533Z,8.05
2023-02-02T04:14:03.239Z,8.11
2023-02-02T04:16:35.228Z,8.21
2023-02-02T04:19:03.119Z,8.10
2023-02-02T04:21:31.577Z,8.18
2023-02-02T04:24:02.997Z,8.26
2023-02-02T04:26:32.032Z,8.24
2023-02-02T04:29:00.479Z,8.36
2023-02-02T04:31:29.910Z,8.38
2023-02-02T04:34:00.267Z,8.37
2023-02-02T04:36:28.280Z,8.39
2023-02-02T04:38:57.273Z,8.32
2023-02-02T04:41:27.491Z,8.55
2023-02-02T04:43:55.242Z,8.56
2023-02-02T04:46:23.289Z,8.45
2023-02-02T04:48:51.836Z,8.33
2023-02-02T04:51:21.404Z,8.43
2023-02-02T04:53:49.948Z,8.42
2023-02-02T04:56:21.618Z,8.47
2023-02-02T04:58:56.175Z,8.55
2023-02-02T05:01:27.694Z,8.62
2023-02-02T05:04:02.269Z,8.75
2023-02-02T05:06:30.198Z,8.55
2023-02-02T05:08:59.327Z,8.53
2023-02-02T05:11:28.657Z,8.75
2023-02-02T05:13:58.077Z,8.77
2023-02-02T05:16:28.813Z,8.51
2023-02-02T05:18:59.769Z,8.55
2023-02-02T05:21:28.413Z,8.49
2023-02-02T05:23:56.267Z,8.63
2023-02-02T05:26:26.347Z,8.60
2023-02-02T05:28:54.990Z,8.59
2023-02-02T05:31:24.750Z,8.62
2023-02-02T05:33:52.562Z,8.50
2023-02-02T05:36:20.381Z,8.61
2023-02-02T05:38:51.936Z,8.52
2023-02-02T05:41:19.734Z,8.43
2023-02-02T05:43:50.392Z,8.41
2023-02-02T05:46:19.273Z,8.47
2023-02-02T05:48:49.473Z,8.52
2023-02-02T05:51:23.309Z,8.59
2023-02-02T05:53:59.981Z,8.59
2023-02-02T05:56:28.964Z,8.58
2023-02-02T05:58:57.021Z,8.57
2023-02-02T06:01:25.020Z,8.71
2023-02-02T06:03:57.680Z,8.72
2023-02-02T06:06:26.341Z,8.71
2023-02-02T06:08:56.025Z,8.71
2023-02-02T06:11:25.962Z,8.73
2023-02-02T06:13:53.938Z,8.61
2023-02-02T06:16:23.555Z,8.61
2023-02-02T06:18:52.592Z,8.63
2023-02-02T06:21:23.317Z,8.36
2023-02-02T06:23:53.566Z,8.37
2023-02-02T06:26:23.027Z,8.45
2023-02-02T06:28:53.593Z,8.40
2023-02-02T06:31:22.413Z,8.34
2023-02-02T06:33:57.633Z,8.43
2023-02-02T06:36:29.771Z,8.50
2023-02-02T06:38:58.956Z,8.55
2023-02-02T06:41:27.397Z,8.44
2023-02-02T06:43:55.821Z,8.47
2023-02-02T06:46:25.750Z,8.48
2023-02-02T06:48:54.493Z,8.60
2023-02-02T06:51:23.762Z,8.57
2023-02-02T06:53:54.179Z,8.42
2023-02-02T06:56:23.097Z,8.59
2023-02-02T06:58:53.523Z,8.56
2023-02-02T07:01:23.277Z,8.63
2023-02-02T07:03:54.274Z,8.59
2023-02-02T07:06:27.268Z,8.73
2023-02-02T07:09:02.666Z,8.66
2023-02-02T07:11:33.317Z,8.79
2023-02-02T07:14:06.190Z,8.70
2023-02-02T07:16:34.164Z,8.68
2023-02-02T07:19:05.095Z,8.72
2023-02-02T07:21:37.117Z,8.88
2023-02-02T07:24:08.138Z,8.84
2023-02-02T07:26:37.265Z,8.80
2023-02-02T07:29:09.247Z,8.89
2023-02-02T07:31:37.422Z,8.81
2023-02-02T07:34:08.770Z,8.94
2023-02-02T07:36:39.514Z,9.01
2023-02-02T07:39:11.101Z,9.07
2023-02-02T07:41:40.333Z,8.97
2023-02-02T07:44:11.561Z,8.94
2023-02-02T07:46:40.791Z,9.00
2023-02-02T07:49:09.283Z,8.98
2023-02-02T07:51:40.914Z,9.02
2023-02-02T07:54:14.288Z,8.78
2023-02-02T07:56:42.597Z,8.82
2023-02-02T07:59:13.668Z,8.79
2023-02-02T08:01:45.544Z,8.79
2023-02-02T08:04:15.883Z,8.73
2023-02-02T08:06:45.020Z,8.77
2023-02-02T08:09:14.918Z,8.94
2023-02-02T08:11:45.296Z,8.83
2023-02-02T08:14:15.780Z,8.90
2023-02-02T08:16:45.865Z,8.97
2023-02-02T08:19:15.236Z,8.80
2023-02-02T08:21:43.650Z,9.03
2023-02-02T08:24:13.164Z,9.07
2023-02-02T08:26:43.529Z,9.17
2023-02-02T08:29:17.223Z,9.10
2023-02-02T08:31:49.143Z,9.05
2023-02-02T08:34:17.105Z,9.18
2023-02-02T08:36:50.430Z,9.24
2023-02-02T08:39:18.522Z,9.26
2023-02-02T08:41:48.778Z,9.31
2023-02-02T08:44:20.032Z,9.20
2023-02-02T08:46:53.341Z,9.37
2023-02-02T08:49:21.712Z,9.39
2023-02-02T08:51:50.839Z,9.34
2023-02-02T08:54:21.533Z,9.35
2023-02-02T08:56:50.809Z,9.32
2023-02-02T08:59:20.340Z,9.36
2023-02-02T09:01:48.247Z,9.40
2023-02-02T09:04:17.160Z,9.42
2023-02-02T09:06:45.994Z,9.64
2023-02-02T09:09:17.706Z,9.72
2023-02-02T09:11:45.691Z,9.68
2023-02-02T09:14:16.691Z,9.61
2023-02-02T09:16:46.681Z,9.58
2023-02-02T09:19:20.123Z,9.47
2023-02-02T09:21:50.599Z,9.49
2023-02-02T09:24:23.052Z,9.68
2023-02-02T09:26:51.289Z,9.61
2023-02-02T09:29:22.636Z,9.53
2023-02-02T09:31:50.733Z,9.48
2023-02-02T09:34:22.602Z,9.45
2023-02-02T09:36:50.923Z,9.58
2023-02-02T09:39:19.567Z,9.37
2023-02-02T09:42:23.191Z,9.54
2023-02-02T09:45:00.960Z,9.58
2023-02-02T09:47:47.668Z,9.49
2023-02-02T09:50:22.228Z,9.56
2023-02-02T09:52:58.168Z,9.38
2023-02-02T09:55:31.889Z,9.44
2023-02-02T09:58:08.837Z,9.30
2023-02-02T10:00:42.703Z,9.27
2023-02-02T10:03:17.890Z,9.41
2023-02-02T10:05:50.622Z,9.36
2023-02-02T10:08:34.728Z,9.22
2023-02-02T10:11:15.562Z,9.28
2023-02-02T10:13:49.125Z,9.30
2023-02-02T10:16:21.962Z,9.24
2023-02-02T10:18:57.798Z,9.35
2023-02-02T10:21:36.009Z,9.19
2023-02-02T10:24:08.501Z,9.26
2023-02-02T10:26:41.198Z,9.27
2023-02-02T10:29:20.192Z,9.49
2023-02-02T10:32:05.558Z,9.58
2023-02-02T10:34:39.080Z,9.64
2023-02-02T10:37:18.964Z,9.76
2023-02-02T10:40:00.692Z,9.79
2023-02-02T10:42:36.617Z,9.76
2023-02-02T10:45:12.325Z,9.86
2023-02-02T10:47:41.866Z,9.91
2023-02-02T10:50:30.633Z,10.16
2023-02-02T10:53:04.407Z,9.85
2023-02-02T10:55:41.379Z,9.93
2023-02-02T10:58:20.481Z,9.92
2023-02-02T11:00:53.697Z,10.00
2023-02-02T11:03:26.615Z,9.93
2023-02-02T11:06:12.622Z,10.03
2023-02-02T11:08:44.363Z,10.04
2023-02-02T11:11:17.850Z,9.83
2023-02-02T11:13:51.779Z,10.01
2023-02-02T11:16:32.677Z,10.12
2023-02-02T11:19:23.844Z,10.01
2023-02-02T11:21:54.211Z,10.17
2023-02-02T11:24:26.233Z,10.23
2023-02-02T11:26:56.805Z,10.20
2023-02-02T11:29:31.295Z,9.81
2023-02-02T11:32:02.569Z,9.72
2023-02-02T11:34:32.190Z,9.80
2023-02-02T11:37:14.647Z,9.76
2023-02-02T11:39:44.090Z,9.56
2023-02-02T11:42:17.964Z,9.45
2023-02-02T11:44:49.825Z,9.55
2023-02-02T11:47:28.061Z,9.61
2023-02-02T11:50:07.777Z,9.58
2023-02-02T11:52:36.199Z,9.47
2023-02-02T11:55:15.812Z,9.51
2023-02-02T11:58:13.723Z,9.67
2023-02-02T12:00:50.659Z,9.64
2023-02-02T12:03:26.093Z,9.64
2023-02-02T12:05:56.212Z,9.61
2023-02-02T12:08:26.301Z,9.73
2023-02-02T12:11:03.553Z,9.97
2023-02-02T12:13:55.451Z,9.75
2023-02-02T12:16:37.938Z,9.78
2023-02-02T12:19:32.495Z,9.95
2023-02-02T12:22:14.197Z,9.87
2023-02-02T12:24:54.539Z,9.93
2023-02-02T12:27:34.063Z,10.00
2023-02-02T12:30:19.714Z,10.05
2023-02-02T12:33:06.322Z,10.14
2023-02-02T12:35:50.364Z,10.13
2023-02-02T12:38:34.017Z,10.04
2023-02-02T12:41:24.548Z,10.11
2023-02-02T12:44:02.826Z,9.97
2023-02-02T12:46:43.607Z,9.89
2023-02-02T12:49:34.368Z,9.89
2023-02-02T12:52:22.701Z,9.96
2023-02-02T12:55:16.719Z,9.84
2023-02-02T12:57:55.727Z,9.85
2023-02-02T13:00:51.350Z,9.98
2023-02-02T13:03:37.818Z,9.99
2023-02-02T13:06:42.744Z,9.94
2023-02-02T13:09:20.411Z,9.88
2023-02-02T13:11:56.184Z,9.93
2023-02-02T13:14:27.552Z,10.01
2023-02-02T13:17:01.885Z,9.91
2023-02-02T13:19:40.713Z,9.98
2023-02-02T13:22:20.154Z,9.98
2023-02-02T13:24:52.079Z,10.10
2023-02-02T13:27:24.974Z,10.16
2023-02-02T13:29:58.673Z,10.10
2023-02-02T13:32:34.204Z,10.21
2023-02-02T13:35:07.428Z,10.18
2023-02-02T13:37:43.002Z,10.38
2023-02-02T13:40:27.994Z,10.29
2023-02-02T13:43:07.773Z,10.42
2023-02-02T13:45:49.790Z,10.38
2023-02-02T13:48:33.080Z,10.46
2023-02-02T13:51:36.773Z,10.46
2023-02-02T13:54:41.016Z,10.41
2023-02-02T13:57:20.775Z,10.59
2023-02-02T14:00:04.798Z,10.70
2023-02-02T14:02:39.940Z,10.71
2023-02-02T14:05:26.421Z,10.59
2023-02-02T14:08:03.198Z,10.49
2023-02-02T14:10:35.265Z,10.62
2023-02-02T14:13:37.668Z,10.55
2023-02-02T14:16:23.726Z,10.80
2023-02-02T14:18:59.684Z,10.68
2023-02-02T14:22:02.776Z,10.82
2023-02-02T14:24:52.272Z,10.74
2023-02-02T14:28:02.272Z,10.93
2023-02-02T14:30:47.484Z,10.93
2023-02-02T14:33:47.511Z,10.82
2023-02-02T14:36:21.254Z,11.15
2023-02-02T14:38:59.733Z,10.99
2023-02-02T14:42:00.821Z,11.01
2023-02-02T14:44:30.775Z,11.32
2023-02-02T14:47:03.167Z,11.27
2023-02-02T14:49:41.509Z,11.28
2023-02-02T14:52:35.840Z,11.22
2023-02-02T14:55:27.168Z,11.04
2023-02-02T14:58:00.199Z,11.23
2023-02-02T15:00:37.852Z,10.80
2023-02-02T15:03:43.488Z,10.87
2023-02-02T15:06:27.843Z,10.69
2023-02-02T15:09:43.252Z,10.59
2023-02-02T15:12:21.360Z,10.28
2023-02-02T15:15:04.633Z,10.32
2023-02-02T15:17:48.392Z,10.44
2023-02-02T15:20:26.908Z,10.17
2023-02-02T15:23:00.777Z,10.21
2023-02-02T15:25:51.709Z,10.29
2023-02-02T15:28:42.466Z,10.44
2023-02-02T15:31:21.745Z,10.43
2023-02-02T15:34:06.251Z,10.59
2023-02-02T15:36:51.465Z,10.60
2023-02-02T15:39:42.371Z,10.55
2023-02-02T15:45:43.932Z,10.24
2023-02-02T15:48:26.963Z,10.52
2023-02-02T15:51:03.204Z,10.42
2023-02-02T15:53:38.877Z,10.46
2023-02-02T15:56:34.323Z,10.46
2023-02-02T15:59:08.166Z,10.58
2023-02-02T16:01:52.094Z,10.62
2023-02-02T16:04:34.828Z,10.61
2023-02-02T16:07:31.375Z,10.44
2023-02-02T16:10:12.465Z,10.53
2023-02-02T16:12:52.991Z,10.63
2023-02-02T16:15:30.795Z,10.47
2023-02-02T16:18:02.806Z,10.54
2023-02-02T16:20:36.770Z,10.52
2023-02-02T16:23:07.508Z,10.46
2023-02-02T16:25:52.201Z,10.35
2023-02-02T16:28:23.767Z,10.43
2023-02-02T16:30:53.706Z,10.50
2023-02-02T16:33:37.542Z,10.26
2023-02-02T16:36:25.009Z,10.50
2023-02-02T16:38:55.215Z,10.44
2023-02-02T16:41:33.948Z,10.51
2023-02-02T16:44:38.953Z,10.37
2023-02-02T16:47:30.895Z,10.41
2023-02-02T16:50:24.113Z,10.37
2023-02-02T16:52:57.415Z,10.42
2023-02-02T16:55:47.985Z,10.36
2023-02-02T16:58:22.091Z,10.43
2023-02-02T17:01:13.616Z,10.28
2023-02-02T17:03:52.676Z,10.31
2023-02-02T17:06:38.635Z,10.26
2023-02-02T17:09:36.445Z,10.29
2023-02-02T17:12:33.590Z,10.34
2023-02-02T17:15:25.450Z,10.35
2023-02-02T17:17:57.282Z,10.21
2023-02-02T17:20:26.893Z,10.35
2023-02-02T17:22:59.063Z,10.37
2023-02-02T17:25:33.535Z,10.49
2023-02-02T17:28:02.399Z,10.48
2023-02-02T17:30:32.535Z,10.63
2023-02-02T17:33:01.938Z,10.67
2023-02-02T17:35:43.382Z,10.48
2023-02-02T17:38:17.398Z,10.35
2023-02-02T17:40:45.840Z,10.51
2023-02-02T17:43:14.031Z,10.60
2023-02-02T17:45:42.185Z,10.60
2023-02-02T17:48:15.100Z,10.51
2023-02-02T17:50:44.915Z,10.56
2023-02-02T17:53:17.953Z,10.49
2023-02-02T17:55:51.279Z,10.31
2023-02-02T17:58:20.980Z,10.33
2023-02-02T18:00:55.141Z,10.30
2023-02-02T18:03:34.380Z,10.37
2023-02-02T18:06:06.407Z,10.28
2023-02-02T18:08:35.160Z,10.37
2023-02-02T18:11:13.472Z,10.14
2023-02-02T18:13:43.868Z,10.30
2023-02-02T18:16:15.328Z,10.17
2023-02-02T18:18:44.579Z,10.21
2023-02-02T18:21:18.905Z,10.12
2023-02-02T18:23:52.897Z,10.17
2023-02-02T18:26:23.410Z,10.12
2023-02-02T18:28:59.262Z,10.18
2023-02-02T18:31:28.028Z,10.37
2023-02-02T18:34:04.542Z,10.13
2023-02-02T18:36:34.017Z,10.11
2023-02-02T18:39:03.507Z,9.86
2023-02-02T18:41:31.623Z,10.05
2023-02-02T18:43:59.976Z,10.24
2023-02-02T18:46:29.582Z,10.13
2023-02-02T18:48:57.824Z,10.04
2023-02-02T18:51:31.905Z,10.07
2023-02-02T18:54:03.932Z,10.11
2023-02-02T18:56:33.156Z,10.15
2023-02-02T18:59:02.175Z,10.26
2023-02-02T19:01:30.480Z,10.01
2023-02-02T19:04:16.633Z,10.19
2023-02-02T19:07:05.140Z,10.05
2023-02-02T19:09:33.312Z,10.18
2023-02-02T19:12:07.268Z,10.10
2023-02-02T19:14:38.484Z,9.98
2023-02-02T19:17:18.677Z,10.15
2023-02-02T19:19:54.891Z,9.94
2023-02-02T19:22:32.272Z,9.98
2023-02-02T19:25:00.822Z,10.06
2023-02-02T19:27:29.263Z,10.06
2023-02-02T19:30:03.962Z,9.99
2023-02-02T19:32:38.416Z,9.99
2023-02-02T19:35:16.619Z,9.88
2023-02-02T19:37:53.917Z,10.02
2023-02-02T19:40:25.100Z,10.05
2023-02-02T19:43:09.012Z,10.02
2023-02-02T19:45:39.717Z,10.01
2023-02-02T19:48:16.967Z,10.04
2023-02-02T19:50:48.813Z,10.02
2023-02-02T19:53:28.267Z,9.90
2023-02-02T19:55:57.787Z,9.93
2023-02-02T19:58:30.500Z,9.81
2023-02-02T20:01:00.527Z,9.53
2023-02-02T20:03:37.817Z,9.80
2023-02-02T20:06:07.193Z,9.61
2023-02-02T20:08:40.608Z,9.71
2023-02-02T20:11:25.361Z,9.76
2023-02-02T20:13:54.622Z,9.81
2023-02-02T20:16:25.371Z,9.62
2023-02-02T20:18:58.458Z,9.65
2023-02-02T20:21:35.230Z,9.80
2023-02-02T20:24:05.397Z,9.58
2023-02-02T20:26:37.475Z,9.76
2023-02-02T20:29:18.396Z,9.72
2023-02-02T20:31:48.558Z,9.75
2023-02-02T20:34:34.601Z,9.81
2023-02-02T20:37:16.151Z,9.42
2023-02-02T20:39:59.599Z,9.51
2023-02-02T20:42:29.348Z,9.41
2023-02-02T20:45:00.348Z,9.55
2023-02-02T20:47:30.276Z,9.68
2023-02-02T20:50:01.386Z,9.46
2023-02-02T20:52:31.036Z,9.41
2023-02-02T20:55:02.628Z,9.50
2023-02-02T20:57:32.256Z,9.47
2023-02-02T21:00:00.562Z,9.40
2023-02-02T21:02:29.697Z,9.37
2023-02-02T21:05:02.371Z,8.92
2023-02-02T21:07:32.733Z,9.32
2023-02-02T21:10:04.695Z,9.24
2023-02-02T21:12:39.054Z,9.26
2023-02-02T21:15:07.868Z,9.27
2023-02-02T21:17:37.140Z,9.29
2023-02-02T21:20:16.117Z,9.17
2023-02-02T21:22:44.256Z,9.26
2023-02-02T21:25:15.468Z,9.29
2023-02-02T21:27:44.570Z,9.29
2023-02-02T21:30:14.423Z,9.55
2023-02-02T21:32:42.406Z,9.24
2023-02-02T21:35:14.077Z,9.33
2023-02-02T21:37:44.204Z,9.29
2023-02-02T21:40:16.914Z,9.07
2023-02-02T21:42:49.424Z,9.29
2023-02-02T21:45:36.119Z,9.33
2023-02-02T21:48:08.735Z,9.35
2023-02-02T21:50:41.886Z,8.99
2023-02-02T21:53:22.264Z,9.27
2023-02-02T21:55:59.676Z,9.39
2023-02-02T21:58:36.217Z,9.26
2023-02-02T22:01:19.140Z,9.33
2023-02-02T22:03:49.741Z,9.23
2023-02-02T22:06:36.931Z,9.27
2023-02-02T22:09:27.640Z,9.35
2023-02-02T22:12:00.603Z,9.34
2023-02-02T22:14:37.574Z,9.35
2023-02-02T22:17:22.185Z,9.36
2023-02-02T22:19:52.258Z,9.28
2023-02-02T22:22:23.133Z,9.17
2023-02-02T22:25:01.364Z,9.30
2023-02-02T22:27:44.276Z,9.30
2023-02-02T22:30:27.992Z,9.13
2023-02-02T22:32:57.641Z,9.23
2023-02-02T22:35:27.307Z,9.21
2023-02-02T22:37:55.314Z,9.14
2023-02-02T22:40:24.089Z,9.17
2023-02-02T22:42:55.847Z,9.11
2023-02-02T22:45:27.479Z,9.24
2023-02-02T22:47:56.400Z,9.16
2023-02-02T22:50:31.834Z,9.24
2023-02-02T22:53:01.465Z,9.22
2023-02-02T22:55:30.132Z,9.17
2023-02-02T22:58:01.666Z,9.13
2023-02-02T23:00:35.281Z,9.22
2023-02-02T23:03:06.186Z,9.02
2023-02-02T23:05:37.214Z,9.15
2023-02-02T23:08:06.544Z,9.03
2023-02-02T23:10:35.851Z,9.11
2023-02-02T23:13:07.399Z,9.13
2023-02-02T23:15:37.384Z,9.02
2023-02-02T23:18:07.307Z,9.16
2023-02-02T23:20:35.482Z,9.40
2023-02-02T23:23:04.420Z,9.13
2023-02-02T23:25:34.339Z,9.07
2023-02-02T23:28:03.019Z,8.98
2023-02-02T23:30:37.604Z,9.16
2023-02-02T23:33:07.845Z,9.03
2023-02-02T23:35:36.761Z,9.18
2023-02-02T23:38:05.816Z,9.17
2023-02-02T23:40:36.505Z,9.24
2023-02-02T23:43:08.521Z,9.07
2023-02-02T23:45:40.165Z,9.21
2023-02-02T23:48:13.355Z,9.25
2023-02-02T23:50:42.140Z,9.20
2023-02-02T23:53:13.964Z,9.29
2023-02-02T23:58:34.709Z,9.13
